sensor_id;sensor_type;location;lat;lon;timestamp;temperature;humidity
26541;DHT22;14206;50.202;10.948;2022-07-15T00:00:01;14.70;76.30
26541;DHT22;14206;50.202;10.948;2022-07-15T00:02:30;14.70;76.30
26541;DHT22;14206;50.202;10.948;2022-07-15T00:04:57;14.60;76.00
26541;DHT22;14206;50.202;10.948;2022-07-15T00:07:31;14.60;76.10
26541;DHT22;14206;50.202;10.948;2022-07-15T00:09:59;14.60;77.50
26541;DHT22;14206;50.202;10.948;2022-07-15T00:12:41;14.50;79.90
26541;DHT22;14206;50.202;10.948;2022-07-15T00:15:09;14.20;81.50
26541;DHT22;14206;50.202;10.948;2022-07-15T00:17:36;14.10;82.20
26541;DHT22;14206;50.202;10.948;2022-07-15T00:20:03;14.00;83.10
26541;DHT22;14206;50.202;10.948;2022-07-15T00:22:29;13.90;82.70
26541;DHT22;14206;50.202;10.948;2022-07-15T00:24:58;13.80;83.20
26541;DHT22;14206;50.202;10.948;2022-07-15T00:27:24;13.80;83.00
26541;DHT22;14206;50.202;10.948;2022-07-15T00:29:51;13.80;82.40
26541;DHT22;14206;50.202;10.948;2022-07-15T00:32:18;13.80;82.60
26541;DHT22;14206;50.202;10.948;2022-07-15T00:34:45;13.80;82.20
26541;DHT22;14206;50.202;10.948;2022-07-15T00:37:12;13.80;82.30
26541;DHT22;14206;50.202;10.948;2022-07-15T00:39:39;13.80;81.80
26541;DHT22;14206;50.202;10.948;2022-07-15T00:42:06;13.80;81.70
26541;DHT22;14206;50.202;10.948;2022-07-15T00:44:40;13.70;81.80
26541;DHT22;14206;50.202;10.948;2022-07-15T00:47:08;13.70;81.90
26541;DHT22;14206;50.202;10.948;2022-07-15T00:49:35;13.70;82.20
26541;DHT22;14206;50.202;10.948;2022-07-15T00:52:02;13.70;82.10
26541;DHT22;14206;50.202;10.948;2022-07-15T00:54:30;13.70;82.00
26541;DHT22;14206;50.202;10.948;2022-07-15T00:56:57;13.70;82.10
26541;DHT22;14206;50.202;10.948;2022-07-15T00:59:28;13.70;82.30
26541;DHT22;14206;50.202;10.948;2022-07-15T01:01:57;13.60;82.30
26541;DHT22;14206;50.202;10.948;2022-07-15T01:04:24;13.50;82.70
26541;DHT22;14206;50.202;10.948;2022-07-15T01:06:53;13.50;82.70
26541;DHT22;14206;50.202;10.948;2022-07-15T01:09:20;13.50;83.00
26541;DHT22;14206;50.202;10.948;2022-07-15T01:11:48;13.40;83.10
26541;DHT22;14206;50.202;10.948;2022-07-15T01:14:15;13.40;82.80
26541;DHT22;14206;50.202;10.948;2022-07-15T01:16:42;13.40;82.70
26541;DHT22;14206;50.202;10.948;2022-07-15T01:19:09;13.40;83.00
26541;DHT22;14206;50.202;10.948;2022-07-15T01:21:42;13.30;82.90
26541;DHT22;14206;50.202;10.948;2022-07-15T01:24:09;13.20;82.90
26541;DHT22;14206;50.202;10.948;2022-07-15T01:27:05;13.20;83.30
26541;DHT22;14206;50.202;10.948;2022-07-15T01:29:32;13.20;83.90
26541;DHT22;14206;50.202;10.948;2022-07-15T01:31:58;13.10;84.30
26541;DHT22;14206;50.202;10.948;2022-07-15T01:34:30;13.10;84.10
26541;DHT22;14206;50.202;10.948;2022-07-15T01:37:01;13.10;84.20
26541;DHT22;14206;50.202;10.948;2022-07-15T01:39:29;13.00;84.30
26541;DHT22;14206;50.202;10.948;2022-07-15T01:42:08;12.90;84.50
26541;DHT22;14206;50.202;10.948;2022-07-15T01:44:35;12.80;85.00
26541;DHT22;14206;50.202;10.948;2022-07-15T01:47:03;12.80;85.40
26541;DHT22;14206;50.202;10.948;2022-07-15T01:49:32;12.80;85.60
26541;DHT22;14206;50.202;10.948;2022-07-15T01:52:18;12.80;85.50
26541;DHT22;14206;50.202;10.948;2022-07-15T01:54:45;12.70;85.40
26541;DHT22;14206;50.202;10.948;2022-07-15T01:57:12;12.70;85.60
26541;DHT22;14206;50.202;10.948;2022-07-15T01:59:52;12.60;85.70
26541;DHT22;14206;50.202;10.948;2022-07-15T02:02:29;12.60;85.40
26541;DHT22;14206;50.202;10.948;2022-07-15T02:04:57;12.50;85.60
26541;DHT22;14206;50.202;10.948;2022-07-15T02:07:24;12.50;85.70
26541;DHT22;14206;50.202;10.948;2022-07-15T02:09:51;12.40;86.10
26541;DHT22;14206;50.202;10.948;2022-07-15T02:12:17;12.40;86.00
26541;DHT22;14206;50.202;10.948;2022-07-15T02:14:50;12.40;86.00
26541;DHT22;14206;50.202;10.948;2022-07-15T02:17:17;12.30;86.10
26541;DHT22;14206;50.202;10.948;2022-07-15T02:19:44;12.30;87.00
26541;DHT22;14206;50.202;10.948;2022-07-15T02:22:11;12.30;86.60
26541;DHT22;14206;50.202;10.948;2022-07-15T02:24:37;12.30;86.40
26541;DHT22;14206;50.202;10.948;2022-07-15T02:27:04;12.30;85.90
26541;DHT22;14206;50.202;10.948;2022-07-15T02:29:31;12.20;86.00
26541;DHT22;14206;50.202;10.948;2022-07-15T02:31:58;12.20;86.30
26541;DHT22;14206;50.202;10.948;2022-07-15T02:34:25;12.10;86.50
26541;DHT22;14206;50.202;10.948;2022-07-15T02:36:52;12.00;86.50
26541;DHT22;14206;50.202;10.948;2022-07-15T02:39:19;11.80;87.20
26541;DHT22;14206;50.202;10.948;2022-07-15T02:41:46;11.80;87.40
26541;DHT22;14206;50.202;10.948;2022-07-15T02:44:14;11.80;87.40
26541;DHT22;14206;50.202;10.948;2022-07-15T02:46:45;11.80;87.30
26541;DHT22;14206;50.202;10.948;2022-07-15T02:49:16;11.80;87.50
26541;DHT22;14206;50.202;10.948;2022-07-15T02:51:43;11.80;87.20
26541;DHT22;14206;50.202;10.948;2022-07-15T02:54:10;11.80;87.40
26541;DHT22;14206;50.202;10.948;2022-07-15T02:56:39;11.80;87.60
26541;DHT22;14206;50.202;10.948;2022-07-15T02:59:05;11.80;87.70
26541;DHT22;14206;50.202;10.948;2022-07-15T03:01:33;11.80;88.10
26541;DHT22;14206;50.202;10.948;2022-07-15T03:04:00;11.80;88.70
26541;DHT22;14206;50.202;10.948;2022-07-15T03:06:27;11.80;87.50
26541;DHT22;14206;50.202;10.948;2022-07-15T03:08:55;11.80;87.30
26541;DHT22;14206;50.202;10.948;2022-07-15T03:11:22;11.70;87.50
26541;DHT22;14206;50.202;10.948;2022-07-15T03:13:49;11.70;87.60
26541;DHT22;14206;50.202;10.948;2022-07-15T03:16:16;11.70;87.70
26541;DHT22;14206;50.202;10.948;2022-07-15T03:18:46;11.70;88.60
26541;DHT22;14206;50.202;10.948;2022-07-15T03:21:13;11.60;89.30
26541;DHT22;14206;50.202;10.948;2022-07-15T03:23:41;11.60;89.00
26541;DHT22;14206;50.202;10.948;2022-07-15T03:26:08;11.50;89.00
26541;DHT22;14206;50.202;10.948;2022-07-15T03:28:35;11.60;88.80
26541;DHT22;14206;50.202;10.948;2022-07-15T03:31:02;11.50;88.70
26541;DHT22;14206;50.202;10.948;2022-07-15T03:33:29;11.60;88.60
26541;DHT22;14206;50.202;10.948;2022-07-15T03:35:56;11.60;88.50
26541;DHT22;14206;50.202;10.948;2022-07-15T03:38:27;11.60;88.70
26541;DHT22;14206;50.202;10.948;2022-07-15T03:40:54;11.60;88.80
26541;DHT22;14206;50.202;10.948;2022-07-15T03:43:21;11.60;88.40
26541;DHT22;14206;50.202;10.948;2022-07-15T03:45:51;11.60;88.50
26541;DHT22;14206;50.202;10.948;2022-07-15T03:48:19;11.60;88.60
26541;DHT22;14206;50.202;10.948;2022-07-15T03:50:46;11.60;88.40
26541;DHT22;14206;50.202;10.948;2022-07-15T03:53:14;11.60;88.80
26541;DHT22;14206;50.202;10.948;2022-07-15T03:55:41;11.60;88.80
26541;DHT22;14206;50.202;10.948;2022-07-15T03:58:19;11.60;88.90
26541;DHT22;14206;50.202;10.948;2022-07-15T04:00:46;11.60;89.10
26541;DHT22;14206;50.202;10.948;2022-07-15T04:03:13;11.70;89.00
26541;DHT22;14206;50.202;10.948;2022-07-15T04:05:40;11.70;88.70
26541;DHT22;14206;50.202;10.948;2022-07-15T04:08:07;11.70;88.40
26541;DHT22;14206;50.202;10.948;2022-07-15T04:10:33;11.60;88.30
26541;DHT22;14206;50.202;10.948;2022-07-15T04:13:00;11.50;89.40
26541;DHT22;14206;50.202;10.948;2022-07-15T04:15:28;11.50;89.80
26541;DHT22;14206;50.202;10.948;2022-07-15T04:17:55;11.60;89.30
26541;DHT22;14206;50.202;10.948;2022-07-15T04:20:25;11.60;88.90
26541;DHT22;14206;50.202;10.948;2022-07-15T04:22:55;11.70;89.00
26541;DHT22;14206;50.202;10.948;2022-07-15T04:25:22;11.80;88.80
26541;DHT22;14206;50.202;10.948;2022-07-15T04:27:48;11.80;88.90
26541;DHT22;14206;50.202;10.948;2022-07-15T04:30:20;11.80;88.80
26541;DHT22;14206;50.202;10.948;2022-07-15T04:32:48;11.80;89.10
26541;DHT22;14206;50.202;10.948;2022-07-15T04:35:16;11.80;89.60
26541;DHT22;14206;50.202;10.948;2022-07-15T04:37:46;11.90;89.50
26541;DHT22;14206;50.202;10.948;2022-07-15T04:40:13;12.10;89.30
26541;DHT22;14206;50.202;10.948;2022-07-15T04:42:42;12.30;88.50
26541;DHT22;14206;50.202;10.948;2022-07-15T04:45:12;12.40;88.50
26541;DHT22;14206;50.202;10.948;2022-07-15T04:47:41;12.60;87.70
26541;DHT22;14206;50.202;10.948;2022-07-15T04:50:10;12.60;87.40
26541;DHT22;14206;50.202;10.948;2022-07-15T04:52:58;12.70;88.00
26541;DHT22;14206;50.202;10.948;2022-07-15T04:55:25;12.80;88.40
26541;DHT22;14206;50.202;10.948;2022-07-15T04:58:03;12.90;88.10
26541;DHT22;14206;50.202;10.948;2022-07-15T05:00:30;13.00;87.50
26541;DHT22;14206;50.202;10.948;2022-07-15T05:02:57;13.10;88.10
26541;DHT22;14206;50.202;10.948;2022-07-15T05:05:26;13.30;87.10
26541;DHT22;14206;50.202;10.948;2022-07-15T05:07:54;13.50;86.40
26541;DHT22;14206;50.202;10.948;2022-07-15T05:10:22;13.60;85.80
26541;DHT22;14206;50.202;10.948;2022-07-15T05:12:56;13.80;85.00
26541;DHT22;14206;50.202;10.948;2022-07-15T05:15:24;13.80;84.40
26541;DHT22;14206;50.202;10.948;2022-07-15T05:17:51;13.90;85.30
26541;DHT22;14206;50.202;10.948;2022-07-15T05:20:20;14.10;84.80
26541;DHT22;14206;50.202;10.948;2022-07-15T05:22:49;14.30;84.70
26541;DHT22;14206;50.202;10.948;2022-07-15T05:25:18;14.60;83.70
26541;DHT22;14206;50.202;10.948;2022-07-15T05:27:45;15.00;82.00
26541;DHT22;14206;50.202;10.948;2022-07-15T05:30:12;15.30;81.20
26541;DHT22;14206;50.202;10.948;2022-07-15T05:32:39;15.60;79.80
26541;DHT22;14206;50.202;10.948;2022-07-15T05:35:12;15.70;79.50
26541;DHT22;14206;50.202;10.948;2022-07-15T05:37:42;16.00;78.90
26541;DHT22;14206;50.202;10.948;2022-07-15T05:40:14;16.20;78.30
26541;DHT22;14206;50.202;10.948;2022-07-15T05:42:47;16.40;77.40
26541;DHT22;14206;50.202;10.948;2022-07-15T05:45:16;16.70;77.30
26541;DHT22;14206;50.202;10.948;2022-07-15T05:47:49;16.80;76.60
26541;DHT22;14206;50.202;10.948;2022-07-15T05:50:20;17.00;75.50
26541;DHT22;14206;50.202;10.948;2022-07-15T05:52:47;17.00;75.10
26541;DHT22;14206;50.202;10.948;2022-07-15T05:55:15;17.10;75.10
26541;DHT22;14206;50.202;10.948;2022-07-15T05:57:42;17.20;75.80
26541;DHT22;14206;50.202;10.948;2022-07-15T06:00:11;17.20;75.40
26541;DHT22;14206;50.202;10.948;2022-07-15T06:02:44;17.30;75.00
26541;DHT22;14206;50.202;10.948;2022-07-15T06:05:19;17.30;73.70
26541;DHT22;14206;50.202;10.948;2022-07-15T06:07:50;17.30;75.50
26541;DHT22;14206;50.202;10.948;2022-07-15T06:10:22;17.40;75.80
26541;DHT22;14206;50.202;10.948;2022-07-15T06:12:49;17.50;75.30
26541;DHT22;14206;50.202;10.948;2022-07-15T06:15:16;17.70;74.20
26541;DHT22;14206;50.202;10.948;2022-07-15T06:17:42;18.00;73.30
26541;DHT22;14206;50.202;10.948;2022-07-15T06:20:09;18.30;73.30
26541;DHT22;14206;50.202;10.948;2022-07-15T06:22:39;18.40;72.00
26541;DHT22;14206;50.202;10.948;2022-07-15T06:25:06;18.60;70.30
26541;DHT22;14206;50.202;10.948;2022-07-15T06:27:33;18.80;69.20
26541;DHT22;14206;50.202;10.948;2022-07-15T06:30:00;19.00;69.00
26541;DHT22;14206;50.202;10.948;2022-07-15T06:32:27;19.30;69.40
26541;DHT22;14206;50.202;10.948;2022-07-15T06:34:54;19.60;68.00
26541;DHT22;14206;50.202;10.948;2022-07-15T06:37:22;19.90;68.00
26541;DHT22;14206;50.202;10.948;2022-07-15T06:39:49;20.30;66.60
26541;DHT22;14206;50.202;10.948;2022-07-15T06:42:15;21.50;65.60
26541;DHT22;14206;50.202;10.948;2022-07-15T06:44:55;22.10;62.00
26541;DHT22;14206;50.202;10.948;2022-07-15T06:47:22;22.60;62.00
26541;DHT22;14206;50.202;10.948;2022-07-15T06:49:48;23.70;60.70
26541;DHT22;14206;50.202;10.948;2022-07-15T06:52:16;24.70;57.20
26541;DHT22;14206;50.202;10.948;2022-07-15T06:54:43;26.30;54.00
26541;DHT22;14206;50.202;10.948;2022-07-15T06:57:10;27.50;49.90
26541;DHT22;14206;50.202;10.948;2022-07-15T06:59:45;28.10;49.30
26541;DHT22;14206;50.202;10.948;2022-07-15T07:02:12;28.70;48.00
26541;DHT22;14206;50.202;10.948;2022-07-15T07:04:41;29.80;47.00
26541;DHT22;14206;50.202;10.948;2022-07-15T07:07:11;29.70;46.40
26541;DHT22;14206;50.202;10.948;2022-07-15T07:09:38;30.80;45.40
26541;DHT22;14206;50.202;10.948;2022-07-15T07:12:05;30.90;44.80
26541;DHT22;14206;50.202;10.948;2022-07-15T07:14:32;31.50;43.60
26541;DHT22;14206;50.202;10.948;2022-07-15T07:16:59;31.50;42.90
26541;DHT22;14206;50.202;10.948;2022-07-15T07:19:26;32.20;41.70
26541;DHT22;14206;50.202;10.948;2022-07-15T07:21:55;33.00;40.90
26541;DHT22;14206;50.202;10.948;2022-07-15T07:24:22;33.80;39.40
26541;DHT22;14206;50.202;10.948;2022-07-15T07:26:49;33.20;48.40
26541;DHT22;14206;50.202;10.948;2022-07-15T07:29:15;32.10;45.00
26541;DHT22;14206;50.202;10.948;2022-07-15T07:31:49;31.80;43.40
26541;DHT22;14206;50.202;10.948;2022-07-15T07:34:17;32.30;43.70
26541;DHT22;14206;50.202;10.948;2022-07-15T07:36:44;33.10;41.70
26541;DHT22;14206;50.202;10.948;2022-07-15T07:39:12;33.20;39.90
26541;DHT22;14206;50.202;10.948;2022-07-15T07:41:39;33.60;40.60
26541;DHT22;14206;50.202;10.948;2022-07-15T07:44:07;33.80;39.00
26541;DHT22;14206;50.202;10.948;2022-07-15T07:46:34;33.60;39.50
26541;DHT22;14206;50.202;10.948;2022-07-15T07:49:01;33.10;38.90
26541;DHT22;14206;50.202;10.948;2022-07-15T07:51:48;32.10;40.40
26541;DHT22;14206;50.202;10.948;2022-07-15T07:54:15;31.40;41.50
26541;DHT22;14206;50.202;10.948;2022-07-15T07:56:41;32.20;39.40
26541;DHT22;14206;50.202;10.948;2022-07-15T07:59:09;33.40;38.30
26541;DHT22;14206;50.202;10.948;2022-07-15T08:01:36;34.30;37.70
26541;DHT22;14206;50.202;10.948;2022-07-15T08:04:03;33.90;37.80
26541;DHT22;14206;50.202;10.948;2022-07-15T08:06:30;33.30;38.50
26541;DHT22;14206;50.202;10.948;2022-07-15T08:08:57;32.40;39.70
26541;DHT22;14206;50.202;10.948;2022-07-15T08:11:24;32.80;41.00
26541;DHT22;14206;50.202;10.948;2022-07-15T08:13:51;34.20;38.10
26541;DHT22;14206;50.202;10.948;2022-07-15T08:16:18;35.40;36.00
26541;DHT22;14206;50.202;10.948;2022-07-15T08:18:45;36.70;35.00
26541;DHT22;14206;50.202;10.948;2022-07-15T08:21:13;37.60;33.30
26541;DHT22;14206;50.202;10.948;2022-07-15T08:23:41;37.20;32.30
26541;DHT22;14206;50.202;10.948;2022-07-15T08:26:08;37.30;33.60
26541;DHT22;14206;50.202;10.948;2022-07-15T08:28:37;36.30;34.00
26541;DHT22;14206;50.202;10.948;2022-07-15T08:31:24;34.90;35.40
26541;DHT22;14206;50.202;10.948;2022-07-15T08:33:51;33.20;36.30
26541;DHT22;14206;50.202;10.948;2022-07-15T08:36:20;31.90;39.10
26541;DHT22;14206;50.202;10.948;2022-07-15T08:38:47;31.30;40.30
26541;DHT22;14206;50.202;10.948;2022-07-15T08:41:15;31.20;40.70
26541;DHT22;14206;50.202;10.948;2022-07-15T08:43:47;32.20;37.90
26541;DHT22;14206;50.202;10.948;2022-07-15T08:46:14;32.90;38.30
26541;DHT22;14206;50.202;10.948;2022-07-15T08:48:44;33.70;35.90
26541;DHT22;14206;50.202;10.948;2022-07-15T08:51:13;33.70;36.30
26541;DHT22;14206;50.202;10.948;2022-07-15T08:53:40;33.10;36.90
26541;DHT22;14206;50.202;10.948;2022-07-15T08:56:07;32.30;36.90
26541;DHT22;14206;50.202;10.948;2022-07-15T08:58:38;31.60;39.30
26541;DHT22;14206;50.202;10.948;2022-07-15T09:01:25;31.00;42.20
26541;DHT22;14206;50.202;10.948;2022-07-15T09:03:52;30.90;41.50
26541;DHT22;14206;50.202;10.948;2022-07-15T09:06:32;31.70;40.20
26541;DHT22;14206;50.202;10.948;2022-07-15T09:08:59;31.50;37.50
26541;DHT22;14206;50.202;10.948;2022-07-15T09:12:19;30.90;40.00
26541;DHT22;14206;50.202;10.948;2022-07-15T09:14:42;30.60;41.40
26541;DHT22;14206;50.202;10.948;2022-07-15T09:22:28;28.00;43.10
26541;DHT22;14206;50.202;10.948;2022-07-15T09:25:06;27.00;45.10
26541;DHT22;14206;50.202;10.948;2022-07-15T09:27:36;26.40;45.90
26541;DHT22;14206;50.202;10.948;2022-07-15T09:33:14;25.70;47.10
26541;DHT22;14206;50.202;10.948;2022-07-15T09:36:19;25.50;48.00
26541;DHT22;14206;50.202;10.948;2022-07-15T09:38:54;25.60;50.50
26541;DHT22;14206;50.202;10.948;2022-07-15T09:43:53;26.50;48.20
26541;DHT22;14206;50.202;10.948;2022-07-15T09:46:21;26.80;47.00
26541;DHT22;14206;50.202;10.948;2022-07-15T09:48:49;26.40;46.10
26541;DHT22;14206;50.202;10.948;2022-07-15T09:51:16;26.10;46.90
26541;DHT22;14206;50.202;10.948;2022-07-15T09:53:43;26.00;47.60
26541;DHT22;14206;50.202;10.948;2022-07-15T09:56:12;25.80;48.40
26541;DHT22;14206;50.202;10.948;2022-07-15T09:58:41;25.50;48.60
26541;DHT22;14206;50.202;10.948;2022-07-15T10:01:08;24.90;50.30
26541;DHT22;14206;50.202;10.948;2022-07-15T10:03:36;24.60;51.10
26541;DHT22;14206;50.202;10.948;2022-07-15T10:06:03;24.50;51.70
26541;DHT22;14206;50.202;10.948;2022-07-15T10:08:31;24.20;51.90
26541;DHT22;14206;50.202;10.948;2022-07-15T10:10:58;24.10;52.40
26541;DHT22;14206;50.202;10.948;2022-07-15T10:13:35;24.10;51.20
26541;DHT22;14206;50.202;10.948;2022-07-15T10:21:40;23.80;52.10
26541;DHT22;14206;50.202;10.948;2022-07-15T10:29:09;25.00;49.80
26541;DHT22;14206;50.202;10.948;2022-07-15T10:31:38;25.30;49.90
26541;DHT22;14206;50.202;10.948;2022-07-15T10:39:05;26.70;46.90
26541;DHT22;14206;50.202;10.948;2022-07-15T10:41:50;27.10;48.40
26541;DHT22;14206;50.202;10.948;2022-07-15T10:44:17;27.60;44.70
26541;DHT22;14206;50.202;10.948;2022-07-15T10:46:44;28.40;44.80
26541;DHT22;14206;50.202;10.948;2022-07-15T10:56:34;29.20;43.20
26541;DHT22;14206;50.202;10.948;2022-07-15T11:01:35;29.10;41.60
26541;DHT22;14206;50.202;10.948;2022-07-15T11:04:15;29.60;40.20
26541;DHT22;14206;50.202;10.948;2022-07-15T11:14:55;32.30;37.70
26541;DHT22;14206;50.202;10.948;2022-07-15T11:19:57;32.10;38.80
26541;DHT22;14206;50.202;10.948;2022-07-15T11:22:25;33.00;38.30
26541;DHT22;14206;50.202;10.948;2022-07-15T11:24:53;34.60;35.70
26541;DHT22;14206;50.202;10.948;2022-07-15T11:27:21;34.60;33.80
26541;DHT22;14206;50.202;10.948;2022-07-15T11:32:19;32.80;35.70
26541;DHT22;14206;50.202;10.948;2022-07-15T11:34:48;31.60;36.50
26541;DHT22;14206;50.202;10.948;2022-07-15T11:37:16;30.50;39.30
26541;DHT22;14206;50.202;10.948;2022-07-15T11:39:48;29.40;41.70
26541;DHT22;14206;50.202;10.948;2022-07-15T11:42:22;28.60;41.90
26541;DHT22;14206;50.202;10.948;2022-07-15T11:45:09;28.00;43.30
26541;DHT22;14206;50.202;10.948;2022-07-15T11:47:39;27.60;43.20
26541;DHT22;14206;50.202;10.948;2022-07-15T11:50:16;27.40;44.60
26541;DHT22;14206;50.202;10.948;2022-07-15T11:52:43;27.50;44.70
26541;DHT22;14206;50.202;10.948;2022-07-15T11:55:16;27.70;43.50
26541;DHT22;14206;50.202;10.948;2022-07-15T11:57:45;28.70;44.80
26541;DHT22;14206;50.202;10.948;2022-07-15T12:00:13;30.10;40.70
26541;DHT22;14206;50.202;10.948;2022-07-15T12:02:40;30.30;40.50
26541;DHT22;14206;50.202;10.948;2022-07-15T12:05:10;30.00;39.90
26541;DHT22;14206;50.202;10.948;2022-07-15T12:07:38;30.80;40.90
26541;DHT22;14206;50.202;10.948;2022-07-15T12:10:05;31.90;40.10
26541;DHT22;14206;50.202;10.948;2022-07-15T12:12:56;32.20;38.30
26541;DHT22;14206;50.202;10.948;2022-07-15T12:15:28;31.90;37.60
26541;DHT22;14206;50.202;10.948;2022-07-15T12:17:56;31.50;39.10
26541;DHT22;14206;50.202;10.948;2022-07-15T12:20:23;31.30;39.10
26541;DHT22;14206;50.202;10.948;2022-07-15T12:23:03;31.30;38.80
26541;DHT22;14206;50.202;10.948;2022-07-15T12:25:30;32.00;38.80
26541;DHT22;14206;50.202;10.948;2022-07-15T12:27:57;33.60;38.00
26541;DHT22;14206;50.202;10.948;2022-07-15T12:30:36;35.00;35.60
26541;DHT22;14206;50.202;10.948;2022-07-15T12:33:20;36.00;33.40
26541;DHT22;14206;50.202;10.948;2022-07-15T12:35:47;36.70;33.10
26541;DHT22;14206;50.202;10.948;2022-07-15T12:38:29;35.60;33.80
26541;DHT22;14206;50.202;10.948;2022-07-15T12:41:04;34.20;34.80
26541;DHT22;14206;50.202;10.948;2022-07-15T12:46:17;31.70;37.00
26541;DHT22;14206;50.202;10.948;2022-07-15T12:48:45;31.10;37.20
26541;DHT22;14206;50.202;10.948;2022-07-15T12:51:16;30.70;39.60
26541;DHT22;14206;50.202;10.948;2022-07-15T12:53:43;30.10;40.80
26541;DHT22;14206;50.202;10.948;2022-07-15T12:56:10;30.00;41.50
26541;DHT22;14206;50.202;10.948;2022-07-15T12:58:37;30.00;41.70
26541;DHT22;14206;50.202;10.948;2022-07-15T13:01:09;30.00;42.20
26541;DHT22;14206;50.202;10.948;2022-07-15T13:03:36;30.20;42.40
26541;DHT22;14206;50.202;10.948;2022-07-15T13:06:21;30.20;41.50
26541;DHT22;14206;50.202;10.948;2022-07-15T13:08:48;29.90;41.80
26541;DHT22;14206;50.202;10.948;2022-07-15T13:11:14;29.70;42.10
26541;DHT22;14206;50.202;10.948;2022-07-15T13:13:41;29.50;42.40
26541;DHT22;14206;50.202;10.948;2022-07-15T13:16:09;29.50;42.10
26541;DHT22;14206;50.202;10.948;2022-07-15T13:18:36;29.20;41.70
26541;DHT22;14206;50.202;10.948;2022-07-15T13:21:04;28.60;42.40
26541;DHT22;14206;50.202;10.948;2022-07-15T13:23:30;28.10;44.00
26541;DHT22;14206;50.202;10.948;2022-07-15T13:25:58;27.90;42.30
26541;DHT22;14206;50.202;10.948;2022-07-15T13:28:25;27.90;43.50
26541;DHT22;14206;50.202;10.948;2022-07-15T13:30:52;27.70;42.80
26541;DHT22;14206;50.202;10.948;2022-07-15T13:33:20;27.60;44.00
26541;DHT22;14206;50.202;10.948;2022-07-15T13:35:46;27.50;43.60
26541;DHT22;14206;50.202;10.948;2022-07-15T13:38:13;27.40;45.20
26541;DHT22;14206;50.202;10.948;2022-07-15T13:40:41;27.30;44.20
26541;DHT22;14206;50.202;10.948;2022-07-15T13:43:08;27.00;45.60
26541;DHT22;14206;50.202;10.948;2022-07-15T13:45:35;26.90;44.70
26541;DHT22;14206;50.202;10.948;2022-07-15T13:48:11;27.00;46.70
26541;DHT22;14206;50.202;10.948;2022-07-15T13:50:38;27.10;46.20
26541;DHT22;14206;50.202;10.948;2022-07-15T13:53:24;27.20;46.00
26541;DHT22;14206;50.202;10.948;2022-07-15T13:55:50;27.50;47.10
26541;DHT22;14206;50.202;10.948;2022-07-15T13:58:18;27.80;46.40
26541;DHT22;14206;50.202;10.948;2022-07-15T14:00:44;27.90;45.50
26541;DHT22;14206;50.202;10.948;2022-07-15T14:03:11;27.80;44.40
26541;DHT22;14206;50.202;10.948;2022-07-15T14:05:39;27.70;44.90
26541;DHT22;14206;50.202;10.948;2022-07-15T14:08:06;27.60;44.50
26541;DHT22;14206;50.202;10.948;2022-07-15T14:10:33;27.30;45.00
26541;DHT22;14206;50.202;10.948;2022-07-15T14:12:59;27.10;46.10
26541;DHT22;14206;50.202;10.948;2022-07-15T14:15:26;26.80;45.40
26541;DHT22;14206;50.202;10.948;2022-07-15T14:18:03;26.50;45.00
26541;DHT22;14206;50.202;10.948;2022-07-15T14:20:30;26.30;47.20
26541;DHT22;14206;50.202;10.948;2022-07-15T14:22:57;26.30;47.00
26541;DHT22;14206;50.202;10.948;2022-07-15T14:25:25;26.30;46.60
26541;DHT22;14206;50.202;10.948;2022-07-15T14:27:52;26.10;47.70
26541;DHT22;14206;50.202;10.948;2022-07-15T14:30:21;26.10;47.80
26541;DHT22;14206;50.202;10.948;2022-07-15T14:32:49;26.00;48.30
26541;DHT22;14206;50.202;10.948;2022-07-15T14:35:18;25.90;49.00
26541;DHT22;14206;50.202;10.948;2022-07-15T14:37:45;25.90;47.80
26541;DHT22;14206;50.202;10.948;2022-07-15T14:40:12;25.90;47.50
26541;DHT22;14206;50.202;10.948;2022-07-15T14:42:40;25.60;46.20
26541;DHT22;14206;50.202;10.948;2022-07-15T14:45:07;25.40;48.90
26541;DHT22;14206;50.202;10.948;2022-07-15T14:47:34;25.40;49.00
26541;DHT22;14206;50.202;10.948;2022-07-15T14:50:01;25.40;49.10
26541;DHT22;14206;50.202;10.948;2022-07-15T14:52:28;25.30;48.90
26541;DHT22;14206;50.202;10.948;2022-07-15T14:54:54;25.30;48.70
26541;DHT22;14206;50.202;10.948;2022-07-15T14:57:21;25.30;46.50
26541;DHT22;14206;50.202;10.948;2022-07-15T14:59:48;25.30;48.60
26541;DHT22;14206;50.202;10.948;2022-07-15T15:02:15;25.20;50.90
26541;DHT22;14206;50.202;10.948;2022-07-15T15:04:42;25.00;48.20
26541;DHT22;14206;50.202;10.948;2022-07-15T15:07:10;24.80;50.50
26541;DHT22;14206;50.202;10.948;2022-07-15T15:09:37;24.80;49.20
26541;DHT22;14206;50.202;10.948;2022-07-15T15:12:04;24.80;49.40
26541;DHT22;14206;50.202;10.948;2022-07-15T15:14:35;24.80;49.30
26541;DHT22;14206;50.202;10.948;2022-07-15T15:17:02;24.80;49.00
26541;DHT22;14206;50.202;10.948;2022-07-15T15:19:32;24.80;51.00
26541;DHT22;14206;50.202;10.948;2022-07-15T15:21:59;24.90;50.30
26541;DHT22;14206;50.202;10.948;2022-07-15T15:24:26;25.00;49.10
26541;DHT22;14206;50.202;10.948;2022-07-15T15:26:53;25.00;49.00
26541;DHT22;14206;50.202;10.948;2022-07-15T15:29:21;24.90;49.90
26541;DHT22;14206;50.202;10.948;2022-07-15T15:31:48;24.70;49.70
26541;DHT22;14206;50.202;10.948;2022-07-15T15:34:16;24.60;51.10
26541;DHT22;14206;50.202;10.948;2022-07-15T15:36:43;24.50;49.90
26541;DHT22;14206;50.202;10.948;2022-07-15T15:39:12;24.50;49.40
26541;DHT22;14206;50.202;10.948;2022-07-15T15:41:39;24.50;50.70
26541;DHT22;14206;50.202;10.948;2022-07-15T15:44:06;24.40;49.00
26541;DHT22;14206;50.202;10.948;2022-07-15T15:46:33;24.40;50.60
26541;DHT22;14206;50.202;10.948;2022-07-15T15:49:00;24.40;48.80
26541;DHT22;14206;50.202;10.948;2022-07-15T15:51:27;24.40;48.40
26541;DHT22;14206;50.202;10.948;2022-07-15T15:53:54;24.30;49.60
26541;DHT22;14206;50.202;10.948;2022-07-15T15:56:20;24.40;48.10
26541;DHT22;14206;50.202;10.948;2022-07-15T15:58:48;24.30;48.70
26541;DHT22;14206;50.202;10.948;2022-07-15T16:01:15;24.20;48.80
26541;DHT22;14206;50.202;10.948;2022-07-15T16:03:42;24.10;48.40
26541;DHT22;14206;50.202;10.948;2022-07-15T16:06:09;24.00;48.10
26541;DHT22;14206;50.202;10.948;2022-07-15T16:08:37;24.00;49.20
26541;DHT22;14206;50.202;10.948;2022-07-15T16:11:04;24.00;48.10
26541;DHT22;14206;50.202;10.948;2022-07-15T16:13:31;24.00;49.00
26541;DHT22;14206;50.202;10.948;2022-07-15T16:15:58;23.90;49.40
26541;DHT22;14206;50.202;10.948;2022-07-15T16:18:25;23.80;48.40